sensor_id;sensor_type;location;lat;lon;timestamp;temperature;humidity
23251;DHT22;11794;49.730;10.088;2022-07-04T00:00:06;18.70;99.90
23251;DHT22;11794;49.730;10.088;2022-07-04T00:02:31;18.80;99.90
23251;DHT22;11794;49.730;10.088;2022-07-04T00:04:57;18.80;99.90
23251;DHT22;11794;49.730;10.088;2022-07-04T00:07:23;18.80;99.90
23251;DHT22;11794;49.730;10.088;2022-07-04T00:09:48;18.90;99.90
23251;DHT22;11794;49.730;10.088;2022-07-04T00:12:14;18.90;99.90
23251;DHT22;11794;49.730;10.088;2022-07-04T00:14:40;18.90;99.90
23251;DHT22;11794;49.730;10.088;2022-07-04T00:17:05;18.90;99.90
23251;DHT22;11794;49.730;10.088;2022-07-04T00:19:31;19.00;99.90
23251;DHT22;11794;49.730;10.088;2022-07-04T00:21:57;19.00;99.90
23251;DHT22;11794;49.730;10.088;2022-07-04T00:24:22;19.00;99.90
23251;DHT22;11794;49.730;10.088;2022-07-04T00:26:48;19.00;99.90
23251;DHT22;11794;49.730;10.088;2022-07-04T00:29:13;19.00;99.90
23251;DHT22;11794;49.730;10.088;2022-07-04T00:31:40;19.00;99.90
23251;DHT22;11794;49.730;10.088;2022-07-04T00:34:05;18.90;99.90
23251;DHT22;11794;49.730;10.088;2022-07-04T00:36:31;18.90;99.90
23251;DHT22;11794;49.730;10.088;2022-07-04T00:38:57;19.00;99.90
23251;DHT22;11794;49.730;10.088;2022-07-04T00:41:22;19.00;99.90
23251;DHT22;11794;49.730;10.088;2022-07-04T00:44:08;18.90;99.90
23251;DHT22;11794;49.730;10.088;2022-07-04T00:46:34;19.00;99.90
23251;DHT22;11794;49.730;10.088;2022-07-04T00:49:02;19.00;99.90
23251;DHT22;11794;49.730;10.088;2022-07-04T00:51:28;19.00;99.90
23251;DHT22;11794;49.730;10.088;2022-07-04T00:53:55;19.00;99.90
23251;DHT22;11794;49.730;10.088;2022-07-04T00:56:22;18.90;99.90
23251;DHT22;11794;49.730;10.088;2022-07-04T00:58:49;18.80;99.90
23251;DHT22;11794;49.730;10.088;2022-07-04T01:01:16;18.70;99.90
23251;DHT22;11794;49.730;10.088;2022-07-04T01:03:42;18.60;99.90
23251;DHT22;11794;49.730;10.088;2022-07-04T01:06:07;18.60;99.90
23251;DHT22;11794;49.730;10.088;2022-07-04T01:08:44;18.60;99.90
23251;DHT22;11794;49.730;10.088;2022-07-04T01:11:11;18.50;99.90
23251;DHT22;11794;49.730;10.088;2022-07-04T01:13:36;18.50;99.90
23251;DHT22;11794;49.730;10.088;2022-07-04T01:16:04;18.50;99.90
23251;DHT22;11794;49.730;10.088;2022-07-04T01:18:31;18.40;99.90
23251;DHT22;11794;49.730;10.088;2022-07-04T01:20:56;18.40;99.90
23251;DHT22;11794;49.730;10.088;2022-07-04T01:23:22;18.40;99.90
23251;DHT22;11794;49.730;10.088;2022-07-04T01:25:48;18.30;99.90
23251;DHT22;11794;49.730;10.088;2022-07-04T01:28:21;18.30;99.90
23251;DHT22;11794;49.730;10.088;2022-07-04T01:30:47;18.20;99.90
23251;DHT22;11794;49.730;10.088;2022-07-04T01:33:13;18.20;99.90
23251;DHT22;11794;49.730;10.088;2022-07-04T01:35:40;18.10;99.90
23251;DHT22;11794;49.730;10.088;2022-07-04T01:38:05;18.10;99.90
23251;DHT22;11794;49.730;10.088;2022-07-04T01:40:31;18.00;99.90
23251;DHT22;11794;49.730;10.088;2022-07-04T01:42:57;18.00;99.90
23251;DHT22;11794;49.730;10.088;2022-07-04T01:45:24;18.00;99.90
23251;DHT22;11794;49.730;10.088;2022-07-04T01:47:49;17.90;99.90
23251;DHT22;11794;49.730;10.088;2022-07-04T01:50:15;17.90;99.90
23251;DHT22;11794;49.730;10.088;2022-07-04T01:52:41;17.80;99.90
23251;DHT22;11794;49.730;10.088;2022-07-04T01:55:08;17.70;99.90
23251;DHT22;11794;49.730;10.088;2022-07-04T01:57:34;17.60;99.90
23251;DHT22;11794;49.730;10.088;2022-07-04T01:59:59;17.50;99.90
23251;DHT22;11794;49.730;10.088;2022-07-04T02:02:43;17.50;99.90
23251;DHT22;11794;49.730;10.088;2022-07-04T02:05:09;17.50;99.90
23251;DHT22;11794;49.730;10.088;2022-07-04T02:07:35;17.40;99.90
23251;DHT22;11794;49.730;10.088;2022-07-04T02:10:01;17.40;99.90
23251;DHT22;11794;49.730;10.088;2022-07-04T02:12:27;17.30;99.90
23251;DHT22;11794;49.730;10.088;2022-07-04T02:15:11;17.30;99.90
23251;DHT22;11794;49.730;10.088;2022-07-04T02:17:36;17.30;99.90
23251;DHT22;11794;49.730;10.088;2022-07-04T02:20:03;17.20;99.90
23251;DHT22;11794;49.730;10.088;2022-07-04T02:22:30;17.30;99.90
23251;DHT22;11794;49.730;10.088;2022-07-04T02:24:56;17.20;99.90
23251;DHT22;11794;49.730;10.088;2022-07-04T02:27:21;17.30;99.90
23251;DHT22;11794;49.730;10.088;2022-07-04T02:29:47;17.30;99.90
23251;DHT22;11794;49.730;10.088;2022-07-04T02:32:13;17.20;99.90
23251;DHT22;11794;49.730;10.088;2022-07-04T02:34:38;17.20;99.90
23251;DHT22;11794;49.730;10.088;2022-07-04T02:37:04;17.20;99.90
23251;DHT22;11794;49.730;10.088;2022-07-04T02:39:30;17.20;99.90
23251;DHT22;11794;49.730;10.088;2022-07-04T02:41:55;17.20;99.90
23251;DHT22;11794;49.730;10.088;2022-07-04T02:44:21;17.20;99.90
23251;DHT22;11794;49.730;10.088;2022-07-04T02:46:46;17.20;99.90
23251;DHT22;11794;49.730;10.088;2022-07-04T02:49:12;17.10;99.90
23251;DHT22;11794;49.730;10.088;2022-07-04T02:51:37;17.00;99.90
23251;DHT22;11794;49.730;10.088;2022-07-04T02:54:03;17.00;99.90
23251;DHT22;11794;49.730;10.088;2022-07-04T02:56:29;16.90;99.90
23251;DHT22;11794;49.730;10.088;2022-07-04T02:58:54;16.80;99.90
23251;DHT22;11794;49.730;10.088;2022-07-04T03:01:20;16.80;99.90
23251;DHT22;11794;49.730;10.088;2022-07-04T03:03:46;16.80;99.90
23251;DHT22;11794;49.730;10.088;2022-07-04T03:06:12;16.90;99.90
23251;DHT22;11794;49.730;10.088;2022-07-04T03:08:38;16.90;99.90
23251;DHT22;11794;49.730;10.088;2022-07-04T03:11:04;16.90;99.90
23251;DHT22;11794;49.730;10.088;2022-07-04T03:13:31;17.00;99.90
23251;DHT22;11794;49.730;10.088;2022-07-04T03:15:57;17.00;99.90
23251;DHT22;11794;49.730;10.088;2022-07-04T03:18:23;17.00;99.90
23251;DHT22;11794;49.730;10.088;2022-07-04T03:20:48;16.90;99.90
23251;DHT22;11794;49.730;10.088;2022-07-04T03:23:14;16.90;99.90
23251;DHT22;11794;49.730;10.088;2022-07-04T03:25:40;16.80;99.90
23251;DHT22;11794;49.730;10.088;2022-07-04T03:28:06;16.70;99.90
23251;DHT22;11794;49.730;10.088;2022-07-04T03:30:32;16.80;99.90
23251;DHT22;11794;49.730;10.088;2022-07-04T03:32:58;16.70;99.90
23251;DHT22;11794;49.730;10.088;2022-07-04T03:35:24;16.70;99.90
23251;DHT22;11794;49.730;10.088;2022-07-04T03:37:50;16.70;99.90
23251;DHT22;11794;49.730;10.088;2022-07-04T03:40:16;16.70;99.90
23251;DHT22;11794;49.730;10.088;2022-07-04T03:42:42;16.70;99.90
23251;DHT22;11794;49.730;10.088;2022-07-04T03:45:08;16.80;99.90
23251;DHT22;11794;49.730;10.088;2022-07-04T03:47:33;16.80;99.90
23251;DHT22;11794;49.730;10.088;2022-07-04T03:49:59;16.80;99.90
23251;DHT22;11794;49.730;10.088;2022-07-04T03:52:25;16.80;99.90
23251;DHT22;11794;49.730;10.088;2022-07-04T03:54:50;16.70;99.90
23251;DHT22;11794;49.730;10.088;2022-07-04T03:57:16;16.80;99.90
23251;DHT22;11794;49.730;10.088;2022-07-04T03:59:41;16.80;99.90
23251;DHT22;11794;49.730;10.088;2022-07-04T04:02:07;17.00;99.90
23251;DHT22;11794;49.730;10.088;2022-07-04T04:04:32;17.10;99.90
23251;DHT22;11794;49.730;10.088;2022-07-04T04:07:16;17.20;99.90
23251;DHT22;11794;49.730;10.088;2022-07-04T04:09:42;17.30;99.90
23251;DHT22;11794;49.730;10.088;2022-07-04T04:12:07;17.40;99.90
23251;DHT22;11794;49.730;10.088;2022-07-04T04:14:33;17.40;99.90
23251;DHT22;11794;49.730;10.088;2022-07-04T04:16:58;17.50;99.90
23251;DHT22;11794;49.730;10.088;2022-07-04T04:19:24;17.60;99.90
23251;DHT22;11794;49.730;10.088;2022-07-04T04:21:50;17.60;99.90
23251;DHT22;11794;49.730;10.088;2022-07-04T04:24:15;17.60;99.90
23251;DHT22;11794;49.730;10.088;2022-07-04T04:26:41;17.70;99.90
23251;DHT22;11794;49.730;10.088;2022-07-04T04:29:06;17.70;99.90
23251;DHT22;11794;49.730;10.088;2022-07-04T04:31:32;17.60;99.90
23251;DHT22;11794;49.730;10.088;2022-07-04T04:33:58;17.60;99.90
23251;DHT22;11794;49.730;10.088;2022-07-04T04:36:23;17.60;99.90
23251;DHT22;11794;49.730;10.088;2022-07-04T04:38:49;17.60;99.90
23251;DHT22;11794;49.730;10.088;2022-07-04T04:41:14;17.60;99.90
23251;DHT22;11794;49.730;10.088;2022-07-04T04:43:42;17.70;99.90
23251;DHT22;11794;49.730;10.088;2022-07-04T04:46:07;17.60;99.90
23251;DHT22;11794;49.730;10.088;2022-07-04T04:48:33;17.70;99.90
23251;DHT22;11794;49.730;10.088;2022-07-04T04:50:59;17.70;99.90
23251;DHT22;11794;49.730;10.088;2022-07-04T04:53:24;17.80;99.90
23251;DHT22;11794;49.730;10.088;2022-07-04T04:55:54;17.90;99.90
23251;DHT22;11794;49.730;10.088;2022-07-04T04:58:20;18.00;99.90
23251;DHT22;11794;49.730;10.088;2022-07-04T05:00:46;18.00;99.90
23251;DHT22;11794;49.730;10.088;2022-07-04T05:03:14;18.10;99.90
23251;DHT22;11794;49.730;10.088;2022-07-04T05:05:39;18.10;99.90
23251;DHT22;11794;49.730;10.088;2022-07-04T05:08:05;18.10;99.90
23251;DHT22;11794;49.730;10.088;2022-07-04T05:10:31;18.10;99.90
23251;DHT22;11794;49.730;10.088;2022-07-04T05:12:56;18.20;99.90
23251;DHT22;11794;49.730;10.088;2022-07-04T05:15:22;18.20;99.90
23251;DHT22;11794;49.730;10.088;2022-07-04T05:17:48;18.20;99.90
23251;DHT22;11794;49.730;10.088;2022-07-04T05:20:13;18.20;99.90
23251;DHT22;11794;49.730;10.088;2022-07-04T05:22:39;18.30;99.90
23251;DHT22;11794;49.730;10.088;2022-07-04T05:25:05;18.30;99.90
23251;DHT22;11794;49.730;10.088;2022-07-04T05:27:31;18.40;99.90
23251;DHT22;11794;49.730;10.088;2022-07-04T05:29:57;18.50;99.90
23251;DHT22;11794;49.730;10.088;2022-07-04T05:32:23;18.60;99.90
23251;DHT22;11794;49.730;10.088;2022-07-04T05:34:48;18.70;99.90
23251;DHT22;11794;49.730;10.088;2022-07-04T05:37:14;18.80;99.90
23251;DHT22;11794;49.730;10.088;2022-07-04T05:39:39;18.90;99.90
23251;DHT22;11794;49.730;10.088;2022-07-04T05:42:05;19.00;99.90
23251;DHT22;11794;49.730;10.088;2022-07-04T05:44:31;19.00;99.90
23251;DHT22;11794;49.730;10.088;2022-07-04T05:46:56;19.20;99.90
23251;DHT22;11794;49.730;10.088;2022-07-04T05:49:22;19.30;99.90
23251;DHT22;11794;49.730;10.088;2022-07-04T05:51:47;19.30;99.90
23251;DHT22;11794;49.730;10.088;2022-07-04T05:54:13;19.30;99.90
23251;DHT22;11794;49.730;10.088;2022-07-04T05:56:38;19.40;99.90
23251;DHT22;11794;49.730;10.088;2022-07-04T05:59:05;19.50;99.90
23251;DHT22;11794;49.730;10.088;2022-07-04T06:01:30;19.50;99.90
23251;DHT22;11794;49.730;10.088;2022-07-04T06:03:56;19.70;99.90
23251;DHT22;11794;49.730;10.088;2022-07-04T06:06:21;19.80;99.90
23251;DHT22;11794;49.730;10.088;2022-07-04T06:08:47;19.80;99.90
23251;DHT22;11794;49.730;10.088;2022-07-04T06:11:12;19.90;99.90
23251;DHT22;11794;49.730;10.088;2022-07-04T06:13:39;20.00;99.90
23251;DHT22;11794;49.730;10.088;2022-07-04T06:16:05;20.10;99.90
23251;DHT22;11794;49.730;10.088;2022-07-04T06:18:30;20.20;99.90
23251;DHT22;11794;49.730;10.088;2022-07-04T06:20:56;20.30;99.90
23251;DHT22;11794;49.730;10.088;2022-07-04T06:23:21;20.40;99.90
23251;DHT22;11794;49.730;10.088;2022-07-04T06:25:47;20.40;99.90
23251;DHT22;11794;49.730;10.088;2022-07-04T06:28:14;20.50;99.90
23251;DHT22;11794;49.730;10.088;2022-07-04T06:30:39;20.60;99.90
23251;DHT22;11794;49.730;10.088;2022-07-04T06:33:05;20.70;99.90
23251;DHT22;11794;49.730;10.088;2022-07-04T06:35:31;20.70;99.90
23251;DHT22;11794;49.730;10.088;2022-07-04T06:38:15;20.80;99.90
23251;DHT22;11794;49.730;10.088;2022-07-04T06:40:41;21.00;99.90
23251;DHT22;11794;49.730;10.088;2022-07-04T06:43:07;21.10;99.90
23251;DHT22;11794;49.730;10.088;2022-07-04T06:45:33;21.20;99.90
23251;DHT22;11794;49.730;10.088;2022-07-04T06:48:00;21.30;99.90
23251;DHT22;11794;49.730;10.088;2022-07-04T06:50:25;21.50;99.90
23251;DHT22;11794;49.730;10.088;2022-07-04T06:52:51;21.60;99.90
23251;DHT22;11794;49.730;10.088;2022-07-04T06:55:16;21.70;99.90
23251;DHT22;11794;49.730;10.088;2022-07-04T06:57:42;21.80;99.90
23251;DHT22;11794;49.730;10.088;2022-07-04T07:00:08;22.00;99.90
23251;DHT22;11794;49.730;10.088;2022-07-04T07:02:35;22.10;99.90
23251;DHT22;11794;49.730;10.088;2022-07-04T07:05:01;22.40;99.90
23251;DHT22;11794;49.730;10.088;2022-07-04T07:07:27;22.60;99.90
23251;DHT22;11794;49.730;10.088;2022-07-04T07:09:53;22.80;99.90
23251;DHT22;11794;49.730;10.088;2022-07-04T07:12:20;23.00;99.90
23251;DHT22;11794;49.730;10.088;2022-07-04T07:14:45;23.30;99.90
23251;DHT22;11794;49.730;10.088;2022-07-04T07:17:11;23.60;99.90
23251;DHT22;11794;49.730;10.088;2022-07-04T07:19:37;23.70;99.90
23251;DHT22;11794;49.730;10.088;2022-07-04T07:22:02;23.80;99.90
23251;DHT22;11794;49.730;10.088;2022-07-04T07:24:28;23.80;99.90
23251;DHT22;11794;49.730;10.088;2022-07-04T07:26:56;23.80;99.90
23251;DHT22;11794;49.730;10.088;2022-07-04T07:29:21;23.90;99.90
23251;DHT22;11794;49.730;10.088;2022-07-04T07:31:47;24.50;99.90
23251;DHT22;11794;49.730;10.088;2022-07-04T07:34:13;24.60;99.90
23251;DHT22;11794;49.730;10.088;2022-07-04T07:36:38;24.80;99.90
23251;DHT22;11794;49.730;10.088;2022-07-04T07:39:04;25.20;99.70
23251;DHT22;11794;49.730;10.088;2022-07-04T07:41:29;25.30;98.80
23251;DHT22;11794;49.730;10.088;2022-07-04T07:43:55;25.60;98.90
23251;DHT22;11794;49.730;10.088;2022-07-04T07:46:20;26.00;97.90
23251;DHT22;11794;49.730;10.088;2022-07-04T07:48:46;26.40;97.20
23251;DHT22;11794;49.730;10.088;2022-07-04T07:51:11;26.60;97.20
23251;DHT22;11794;49.730;10.088;2022-07-04T07:53:39;26.70;96.70
23251;DHT22;11794;49.730;10.088;2022-07-04T07:56:05;26.90;96.40
23251;DHT22;11794;49.730;10.088;2022-07-04T07:58:30;26.60;95.80
23251;DHT22;11794;49.730;10.088;2022-07-04T08:00:56;26.70;96.10
23251;DHT22;11794;49.730;10.088;2022-07-04T08:03:21;26.80;95.80
23251;DHT22;11794;49.730;10.088;2022-07-04T08:06:05;26.70;95.70
23251;DHT22;11794;49.730;10.088;2022-07-04T08:08:31;26.80;95.70
23251;DHT22;11794;49.730;10.088;2022-07-04T08:10:56;26.80;95.30
23251;DHT22;11794;49.730;10.088;2022-07-04T08:13:22;26.70;95.40
23251;DHT22;11794;49.730;10.088;2022-07-04T08:15:47;27.40;94.60
23251;DHT22;11794;49.730;10.088;2022-07-04T08:18:13;27.40;94.00
23251;DHT22;11794;49.730;10.088;2022-07-04T08:20:38;27.40;93.90
23251;DHT22;11794;49.730;10.088;2022-07-04T08:23:04;27.80;93.60
23251;DHT22;11794;49.730;10.088;2022-07-04T08:25:30;27.80;93.20
23251;DHT22;11794;49.730;10.088;2022-07-04T08:27:55;27.80;93.30
23251;DHT22;11794;49.730;10.088;2022-07-04T08:30:21;27.90;94.00
23251;DHT22;11794;49.730;10.088;2022-07-04T08:32:46;27.80;93.60
23251;DHT22;11794;49.730;10.088;2022-07-04T08:35:12;28.00;93.30
23251;DHT22;11794;49.730;10.088;2022-07-04T08:37:38;28.30;92.60
23251;DHT22;11794;49.730;10.088;2022-07-04T08:40:06;28.60;92.50
23251;DHT22;11794;49.730;10.088;2022-07-04T08:42:39;28.90;92.80
23251;DHT22;11794;49.730;10.088;2022-07-04T08:45:05;28.90;91.50
23251;DHT22;11794;49.730;10.088;2022-07-04T08:47:35;28.90;91.80
23251;DHT22;11794;49.730;10.088;2022-07-04T08:50:12;28.80;91.80
23251;DHT22;11794;49.730;10.088;2022-07-04T08:52:53;28.90;91.90
23251;DHT22;11794;49.730;10.088;2022-07-04T08:55:19;29.00;91.50
23251;DHT22;11794;49.730;10.088;2022-07-04T08:58:04;29.10;90.90
23251;DHT22;11794;49.730;10.088;2022-07-04T09:00:50;29.00;91.80
23251;DHT22;11794;49.730;10.088;2022-07-04T09:03:18;29.50;91.40
23251;DHT22;11794;49.730;10.088;2022-07-04T09:05:44;29.70;90.20
23251;DHT22;11794;49.730;10.088;2022-07-04T09:08:09;29.60;90.60
23251;DHT22;11794;49.730;10.088;2022-07-04T09:10:36;29.50;90.10
23251;DHT22;11794;49.730;10.088;2022-07-04T09:13:04;29.10;90.20
23251;DHT22;11794;49.730;10.088;2022-07-04T09:15:30;29.40;90.40
23251;DHT22;11794;49.730;10.088;2022-07-04T09:17:56;29.50;89.90
23251;DHT22;11794;49.730;10.088;2022-07-04T09:20:23;29.80;87.70
23251;DHT22;11794;49.730;10.088;2022-07-04T09:22:51;30.20;86.40
23251;DHT22;11794;49.730;10.088;2022-07-04T09:25:17;30.60;86.80
23251;DHT22;11794;49.730;10.088;2022-07-04T09:27:46;30.60;85.20
23251;DHT22;11794;49.730;10.088;2022-07-04T09:30:14;30.80;87.90
23251;DHT22;11794;49.730;10.088;2022-07-04T09:32:42;31.00;85.60
23251;DHT22;11794;49.730;10.088;2022-07-04T09:35:11;30.60;86.00
23251;DHT22;11794;49.730;10.088;2022-07-04T09:37:42;30.50;85.50
23251;DHT22;11794;49.730;10.088;2022-07-04T09:40:26;30.30;84.40
23251;DHT22;11794;49.730;10.088;2022-07-04T09:42:53;30.40;83.90
23251;DHT22;11794;49.730;10.088;2022-07-04T09:45:19;30.60;84.30
23251;DHT22;11794;49.730;10.088;2022-07-04T09:47:48;31.00;84.00
23251;DHT22;11794;49.730;10.088;2022-07-04T09:50:16;31.40;82.70
23251;DHT22;11794;49.730;10.088;2022-07-04T09:53:02;31.60;81.70
23251;DHT22;11794;49.730;10.088;2022-07-04T09:55:36;31.60;78.90
23251;DHT22;11794;49.730;10.088;2022-07-04T09:58:10;31.70;78.70
23251;DHT22;11794;49.730;10.088;2022-07-04T10:00:38;31.80;77.10
23251;DHT22;11794;49.730;10.088;2022-07-04T10:05:47;32.30;77.00
23251;DHT22;11794;49.730;10.088;2022-07-04T10:08:13;32.10;75.20
23251;DHT22;11794;49.730;10.088;2022-07-04T10:10:39;32.30;74.80
23251;DHT22;11794;49.730;10.088;2022-07-04T10:13:11;32.40;75.50
23251;DHT22;11794;49.730;10.088;2022-07-04T10:15:39;32.70;70.70
23251;DHT22;11794;49.730;10.088;2022-07-04T10:18:06;32.80;73.00
23251;DHT22;11794;49.730;10.088;2022-07-04T10:20:32;32.50;72.00
23251;DHT22;11794;49.730;10.088;2022-07-04T10:22:58;32.40;69.50
23251;DHT22;11794;49.730;10.088;2022-07-04T10:25:24;32.30;71.80
23251;DHT22;11794;49.730;10.088;2022-07-04T10:27:50;32.50;71.40
23251;DHT22;11794;49.730;10.088;2022-07-04T10:30:25;32.60;72.60
23251;DHT22;11794;49.730;10.088;2022-07-04T10:32:51;33.10;72.30
23251;DHT22;11794;49.730;10.088;2022-07-04T10:38:18;32.30;68.00
23251;DHT22;11794;49.730;10.088;2022-07-04T10:49:04;32.40;73.40
23251;DHT22;11794;49.730;10.088;2022-07-04T11:01:13;33.60;68.50
23251;DHT22;11794;49.730;10.088;2022-07-04T11:10:37;33.10;66.40
23251;DHT22;11794;49.730;10.088;2022-07-04T11:19:43;34.50;63.20
23251;DHT22;11794;49.730;10.088;2022-07-04T11:22:22;33.90;65.10
23251;DHT22;11794;49.730;10.088;2022-07-04T11:41:04;35.60;60.00
23251;DHT22;11794;49.730;10.088;2022-07-04T11:44:15;35.70;61.20
23251;DHT22;11794;49.730;10.088;2022-07-04T11:57:25;34.40;60.60
23251;DHT22;11794;49.730;10.088;2022-07-04T12:03:25;34.90;59.60
23251;DHT22;11794;49.730;10.088;2022-07-04T12:06:04;34.60;57.40
23251;DHT22;11794;49.730;10.088;2022-07-04T12:11:58;35.60;56.50
23251;DHT22;11794;49.730;10.088;2022-07-04T12:17:53;35.70;56.50
23251;DHT22;11794;49.730;10.088;2022-07-04T12:20:32;34.30;54.60
23251;DHT22;11794;49.730;10.088;2022-07-04T12:32:53;33.60;59.40
23251;DHT22;11794;49.730;10.088;2022-07-04T12:39:07;35.30;56.50
23251;DHT22;11794;49.730;10.088;2022-07-04T12:41:33;36.00;56.30
23251;DHT22;11794;49.730;10.088;2022-07-04T12:43:59;36.40;55.80
23251;DHT22;11794;49.730;10.088;2022-07-04T12:46:40;36.90;54.20
23251;DHT22;11794;49.730;10.088;2022-07-04T12:49:35;37.10;54.20
23251;DHT22;11794;49.730;10.088;2022-07-04T12:55:27;36.90;53.60
23251;DHT22;11794;49.730;10.088;2022-07-04T12:57:53;36.70;53.40
23251;DHT22;11794;49.730;10.088;2022-07-04T13:00:19;36.70;52.50
23251;DHT22;11794;49.730;10.088;2022-07-04T13:02:44;36.90;52.00
23251;DHT22;11794;49.730;10.088;2022-07-04T13:05:43;37.20;51.00
23251;DHT22;11794;49.730;10.088;2022-07-04T13:08:09;37.50;50.30
23251;DHT22;11794;49.730;10.088;2022-07-04T13:10:35;36.90;51.80
23251;DHT22;11794;49.730;10.088;2022-07-04T13:13:01;36.50;51.40
23251;DHT22;11794;49.730;10.088;2022-07-04T13:15:27;36.50;52.40
23251;DHT22;11794;49.730;10.088;2022-07-04T13:17:52;36.20;49.50
23251;DHT22;11794;49.730;10.088;2022-07-04T13:20:18;36.00;50.40
23251;DHT22;11794;49.730;10.088;2022-07-04T13:22:43;35.80;52.30
23251;DHT22;11794;49.730;10.088;2022-07-04T13:25:09;35.90;53.10
23251;DHT22;11794;49.730;10.088;2022-07-04T13:27:34;36.50;53.30
23251;DHT22;11794;49.730;10.088;2022-07-04T13:30:00;37.50;50.60
23251;DHT22;11794;49.730;10.088;2022-07-04T13:32:26;37.70;48.50
23251;DHT22;11794;49.730;10.088;2022-07-04T13:34:51;37.40;51.80
23251;DHT22;11794;49.730;10.088;2022-07-04T13:37:17;36.90;50.30
23251;DHT22;11794;49.730;10.088;2022-07-04T13:39:43;36.20;50.60
23251;DHT22;11794;49.730;10.088;2022-07-04T13:42:09;35.50;51.70
23251;DHT22;11794;49.730;10.088;2022-07-04T13:44:34;35.60;51.80
23251;DHT22;11794;49.730;10.088;2022-07-04T13:47:00;35.90;51.60
23251;DHT22;11794;49.730;10.088;2022-07-04T13:49:26;36.20;51.70
23251;DHT22;11794;49.730;10.088;2022-07-04T13:51:52;36.10;51.30
23251;DHT22;11794;49.730;10.088;2022-07-04T13:54:17;35.40;52.60
23251;DHT22;11794;49.730;10.088;2022-07-04T13:56:43;35.10;53.50
23251;DHT22;11794;49.730;10.088;2022-07-04T13:59:09;34.80;52.30
23251;DHT22;11794;49.730;10.088;2022-07-04T14:01:35;34.30;52.90
23251;DHT22;11794;49.730;10.088;2022-07-04T14:04:00;33.80;52.70
23251;DHT22;11794;49.730;10.088;2022-07-04T14:06:26;33.20;52.70
23251;DHT22;11794;49.730;10.088;2022-07-04T14:08:52;32.80;54.40
23251;DHT22;11794;49.730;10.088;2022-07-04T14:11:17;32.70;53.40
23251;DHT22;11794;49.730;10.088;2022-07-04T14:13:43;32.90;54.80
23251;DHT22;11794;49.730;10.088;2022-07-04T14:16:08;32.90;53.10
23251;DHT22;11794;49.730;10.088;2022-07-04T14:18:34;32.40;53.20
23251;DHT22;11794;49.730;10.088;2022-07-04T14:21:00;32.30;54.70
23251;DHT22;11794;49.730;10.088;2022-07-04T14:23:25;31.90;55.80
23251;DHT22;11794;49.730;10.088;2022-07-04T14:26:14;31.70;56.40
23251;DHT22;11794;49.730;10.088;2022-07-04T14:28:41;31.70;57.10
23251;DHT22;11794;49.730;10.088;2022-07-04T14:31:07;31.60;56.10
23251;DHT22;11794;49.730;10.088;2022-07-04T14:33:32;31.50;56.20
23251;DHT22;11794;49.730;10.088;2022-07-04T14:36:01;31.50;57.20
23251;DHT22;11794;49.730;10.088;2022-07-04T14:38:27;31.50;56.90
23251;DHT22;11794;49.730;10.088;2022-07-04T14:40:53;31.40;55.20
23251;DHT22;11794;49.730;10.088;2022-07-04T14:43:18;31.20;55.50
23251;DHT22;11794;49.730;10.088;2022-07-04T14:45:44;31.00;55.60
23251;DHT22;11794;49.730;10.088;2022-07-04T14:48:12;30.90;57.30
23251;DHT22;11794;49.730;10.088;2022-07-04T14:50:38;30.90;57.10
23251;DHT22;11794;49.730;10.088;2022-07-04T14:53:03;30.70;56.80
23251;DHT22;11794;49.730;10.088;2022-07-04T14:55:29;30.50;56.00
23251;DHT22;11794;49.730;10.088;2022-07-04T14:57:54;30.10;55.70
23251;DHT22;11794;49.730;10.088;2022-07-04T15:00:20;30.10;56.00
23251;DHT22;11794;49.730;10.088;2022-07-04T15:02:45;30.00;57.70
23251;DHT22;11794;49.730;10.088;2022-07-04T15:05:12;30.00;57.90
23251;DHT22;11794;49.730;10.088;2022-07-04T15:07:38;29.70;57.40
23251;DHT22;11794;49.730;10.088;2022-07-04T15:10:05;29.60;58.30
23251;DHT22;11794;49.730;10.088;2022-07-04T15:12:33;29.60;58.80
23251;DHT22;11794;49.730;10.088;2022-07-04T15:14:59;29.80;59.20
23251;DHT22;11794;49.730;10.088;2022-07-04T15:17:24;29.80;57.90
23251;DHT22;11794;49.730;10.088;2022-07-04T15:19:50;29.70;57.10
23251;DHT22;11794;49.730;10.088;2022-07-04T15:22:34;29.80;56.50
23251;DHT22;11794;49.730;10.088;2022-07-04T15:25:18;29.70;57.50
23251;DHT22;11794;49.730;10.088;2022-07-04T15:27:43;29.60;56.50
23251;DHT22;11794;49.730;10.088;2022-07-04T15:30:09;29.40;56.90
23251;DHT22;11794;49.730;10.088;2022-07-04T15:32:35;29.30;57.10
23251;DHT22;11794;49.730;10.088;2022-07-04T15:35:01;29.20;56.80
23251;DHT22;11794;49.730;10.088;2022-07-04T15:37:26;29.30;56.40
23251;DHT22;11794;49.730;10.088;2022-07-04T15:39:52;29.30;56.70
23251;DHT22;11794;49.730;10.088;2022-07-04T15:42:17;29.20;55.80
23251;DHT22;11794;49.730;10.088;2022-07-04T15:44:43;29.10;55.90
23251;DHT22;11794;49.730;10.088;2022-07-04T15:47:09;28.90;56.20
23251;DHT22;11794;49.730;10.088;2022-07-04T15:49:36;29.10;57.80
23251;DHT22;11794;49.730;10.088;2022-07-04T15:52:03;29.10;57.70
23251;DHT22;11794;49.730;10.088;2022-07-04T15:54:29;29.10;58.10
23251;DHT22;11794;49.730;10.088;2022-07-04T15:56:55;29.10;58.10
23251;DHT22;11794;49.730;10.088;2022-07-04T15:59:21;29.10;59.20
23251;DHT22;11794;49.730;10.088;2022-07-04T16:01:46;29.00;58.90
23251;DHT22;11794;49.730;10.088;2022-07-04T16:04:12;28.80;58.80
23251;DHT22;11794;49.730;10.088;2022-07-04T16:06:37;28.80;58.30
23251;DHT22;11794;49.730;10.088;2022-07-04T16:09:05;28.60;58.10
23251;DHT22;11794;49.730;10.088;2022-07-04T16:11:31;28.40;58.40
23251;DHT22;11794;49.730;10.088;2022-07-04T16:13:56;28.40;59.20
23251;DHT22;11794;49.730;10.088;2022-07-04T16:16:22;28.40;58.20
23251;DHT22;11794;49.730;10.088;2022-07-04T16:18:48;28.30;58.40
23251;DHT22;11794;49.730;10.088;2022-07-04T16:21:13;28.20;59.40
23251;DHT22;11794;49.730;10.088;2022-07-04T16:23:39;28.10;59.20
23251;DHT22;11794;49.730;10.088;2022-07-04T16:26:05;28.10;59.20
23251;DHT22;11794;49.730;10.088;2022-07-04T16:28:31;28.20;59.50
23251;DHT22;11794;49.730;10.088;2022-07-04T16:30:56;28.30;60.20
23251;DHT22;11794;49.730;10.088;2022-07-04T16:33:22;28.30;59.10
23251;DHT22;11794;49.730;10.088;2022-07-04T16:35:48;28.40;59.60
23251;DHT22;11794;49.730;10.088;2022-07-04T16:38:14;28.30;60.40
23251;DHT22;11794;49.730;10.088;2022-07-04T16:40:40;28.30;60.40
23251;DHT22;11794;49.730;10.088;2022-07-04T16:43:05;28.30;59.50
23251;DHT22;11794;49.730;10.088;2022-07-04T16:45:31;28.20;60.10